createdAt,value
2019-06-15T04:00:54.759Z,944.00
2019-06-15T04:01:54.934Z,960.00
2019-06-15T04:02:55.107Z,976.00
2019-06-15T04:03:55.288Z,988.00
2019-06-15T04:04:55.459Z,1000.00
2019-06-15T04:05:55.633Z,1012.00
2019-06-15T04:06:55.809Z,1020.00
2019-06-15T04:07:55.976Z,1040.00
2019-06-15T04:08:56.152Z,1056.00
2019-06-15T04:09:56.325Z,1076.00
2019-06-15T04:10:56.498Z,1100.00
2019-06-15T04:11:56.673Z,1132.00
2019-06-15T04:12:56.846Z,1164.00
2019-06-15T04:13:57.024Z,1204.00
2019-06-15T04:14:57.203Z,1236.00
2019-06-15T04:15:57.371Z,1272.00
2019-06-15T04:16:57.546Z,1304.00
2019-06-15T04:17:57.720Z,1336.00
2019-06-15T04:18:57.892Z,1372.00
2019-06-15T04:19:58.067Z,1412.00
2019-06-15T04:20:58.242Z,1456.00
2019-06-15T04:21:58.423Z,1504.00
2019-06-15T04:22:58.591Z,1552.00
2019-06-15T04:23:58.765Z,1608.00
2019-06-15T04:24:58.940Z,1664.00
2019-06-15T04:25:59.123Z,1720.00
2019-06-15T04:26:59.290Z,1784.00
2019-06-15T04:27:59.463Z,1844.00
2019-06-15T04:28:59.635Z,1900.00
2019-06-15T04:29:59.810Z,1932.00
2019-06-15T04:30:59.983Z,1952.00
2019-06-15T04:32:00.162Z,1960.00
2019-06-15T04:33:00.332Z,1956.00
2019-06-15T04:34:00.507Z,1964.00
2019-06-15T04:35:00.683Z,1988.00
2019-06-15T04:36:00.863Z,2040.00
2019-06-15T04:37:01.027Z,2120.00
2019-06-15T04:38:01.202Z,2208.00
2019-06-15T04:39:01.372Z,2296.00
2019-06-15T04:40:01.547Z,2360.00
2019-06-15T04:41:01.827Z,2380.00
2019-06-15T04:42:01.895Z,2376.00
2019-06-15T04:43:02.069Z,2360.00
2019-06-15T04:44:02.242Z,2344.00
2019-06-15T04:45:02.419Z,2336.00
2019-06-15T04:46:02.591Z,2348.00
2019-06-15T04:47:02.766Z,2380.00
2019-06-15T04:48:02.942Z,2420.00
2019-06-15T04:49:03.159Z,2464.00
2019-06-15T04:50:03.287Z,2492.00
2019-06-15T04:51:03.468Z,2496.00
2019-06-15T04:52:03.661Z,2488.00
2019-06-15T04:53:03.806Z,2496.00
2019-06-15T04:54:03.980Z,2548.00
2019-06-15T04:55:04.154Z,2636.00
2019-06-15T04:56:04.330Z,2740.00
2019-06-15T04:57:04.501Z,2848.00
2019-06-15T04:58:04.676Z,2920.00
2019-06-15T04:59:04.852Z,2964.00
2019-06-15T05:00:05.028Z,2976.00
2019-06-15T05:01:05.197Z,2964.00
2019-06-15T05:02:05.376Z,2932.00
2019-06-15T05:03:05.544Z,2876.00
2019-06-15T05:04:05.718Z,2788.00
2019-06-15T05:05:05.894Z,2720.00
2019-06-15T05:06:06.067Z,2648.00
2019-06-15T05:07:06.241Z,2628.00
2019-06-15T05:08:06.415Z,2660.00
2019-06-15T05:09:06.587Z,2716.00
2019-06-15T05:10:06.759Z,2788.00
2019-06-15T05:11:06.934Z,2856.00
2019-06-15T05:12:07.106Z,2928.00
2019-06-15T05:13:07.281Z,2960.00
2019-06-15T05:14:07.458Z,3012.00
2019-06-15T05:15:07.632Z,3104.00
2019-06-15T05:16:07.808Z,3128.00
2019-06-15T05:17:07.992Z,3280.00
2019-06-15T05:18:08.157Z,3308.00
2019-06-15T05:19:08.331Z,3324.00
2019-06-15T05:20:08.505Z,3348.00
2019-06-15T05:21:08.682Z,3360.00
2019-06-15T05:22:08.854Z,3372.00
2019-06-15T05:23:09.032Z,3392.00
2019-06-15T05:24:09.206Z,3420.00
2019-06-15T05:25:09.383Z,3448.00
2019-06-15T05:26:09.553Z,3480.00
2019-06-15T05:27:09.728Z,3504.00
2019-06-15T05:28:09.901Z,3532.00
2019-06-15T05:29:10.076Z,3560.00
2019-06-15T05:30:10.254Z,3572.00
2019-06-15T05:31:10.432Z,3592.00
2019-06-15T05:32:10.597Z,3636.00
2019-06-15T05:33:10.771Z,3668.00
2019-06-15T05:34:10.953Z,3728.00
2019-06-15T05:35:11.120Z,3788.00
2019-06-15T05:36:11.297Z,3852.00
2019-06-15T05:37:11.467Z,3928.00
2019-06-15T05:38:11.644Z,4000.00
2019-06-15T05:39:11.821Z,4072.00
2019-06-15T05:40:11.987Z,4164.00
2019-06-15T05:41:12.211Z,4244.00
2019-06-15T05:42:12.338Z,4332.00
2019-06-15T05:43:12.513Z,4436.00
2019-06-15T05:44:12.686Z,4532.00
2019-06-15T05:45:12.863Z,4624.00
2019-06-15T05:46:13.037Z,4728.00
2019-06-15T05:47:13.212Z,4848.00
2019-06-15T05:48:13.408Z,4968.00
2019-06-15T05:49:13.560Z,5112.00
2019-06-15T05:50:13.737Z,5248.00
2019-06-15T05:51:13.917Z,5364.00
2019-06-15T05:52:14.107Z,5432.00
2019-06-15T05:53:14.263Z,5444.00
2019-06-15T05:54:14.439Z,5348.00
2019-06-15T05:55:14.613Z,5072.00
2019-06-15T05:56:14.788Z,4688.00
2019-06-15T05:57:21.521Z,4384.00
2019-06-15T05:58:15.138Z,4112.00
2019-06-15T05:59:15.313Z,3992.00
2019-06-15T06:00:15.488Z,4060.00
2019-06-15T06:01:15.665Z,4284.00
2019-06-15T06:02:15.869Z,4376.00
2019-06-15T06:03:16.017Z,4416.00
2019-06-15T06:04:16.194Z,4468.00
2019-06-15T06:05:16.365Z,4488.00
2019-06-15T06:06:16.545Z,4504.00
2019-06-15T06:07:16.716Z,4516.00
2019-06-15T06:08:16.892Z,4528.00
2019-06-15T06:09:17.066Z,4544.00
2019-06-15T06:10:17.244Z,4556.00
2019-06-15T06:11:17.417Z,4576.00
2019-06-15T06:12:17.592Z,4596.00
2019-06-15T06:13:17.779Z,4616.00
2019-06-15T06:14:17.943Z,4624.00
2019-06-15T06:15:18.119Z,4624.00
2019-06-15T06:16:18.295Z,4640.00
2019-06-15T06:17:18.469Z,4648.00
2019-06-15T06:18:18.647Z,4668.00
2019-06-15T06:19:18.819Z,4676.00
2019-06-15T06:20:18.999Z,4688.00
2019-06-15T06:21:19.172Z,4708.00
2019-06-15T06:22:19.345Z,4720.00
2019-06-15T06:23:19.518Z,4732.00
2019-06-15T06:24:19.695Z,4748.00
2019-06-15T06:25:19.869Z,4760.00
2019-06-15T06:26:20.043Z,4780.00
2019-06-15T06:27:20.221Z,4816.00
2019-06-15T06:28:20.397Z,4844.00
2019-06-15T06:29:20.572Z,4832.00
2019-06-15T06:30:20.746Z,4860.00
2019-06-15T06:31:20.928Z,4852.00
2019-06-15T06:32:21.099Z,4852.00
2019-06-15T06:33:21.292Z,4896.00
2019-06-15T06:34:21.460Z,4904.00
2019-06-15T06:35:21.626Z,4908.00
2019-06-15T06:36:21.801Z,4944.00
2019-06-15T06:37:21.976Z,4920.00
2019-06-15T06:38:22.155Z,4944.00
2019-06-15T06:39:22.328Z,4960.00
2019-06-15T06:40:22.511Z,4976.00
2019-06-15T06:41:22.683Z,5028.00
2019-06-15T06:42:22.855Z,5060.00
2019-06-15T06:43:23.039Z,5128.00
2019-06-15T06:44:23.207Z,5128.00
2019-06-15T06:45:23.381Z,5168.00
2019-06-15T06:46:23.560Z,5212.00
2019-06-15T06:47:23.731Z,5272.00
2019-06-15T06:48:23.908Z,5272.00
2019-06-15T06:49:24.082Z,5320.00
2019-06-15T06:50:24.256Z,5396.00
2019-06-15T06:51:24.431Z,5376.00
2019-06-15T06:52:24.606Z,5412.00
2019-06-15T06:53:24.781Z,5400.00
2019-06-15T06:54:24.954Z,5400.00
2019-06-15T06:55:25.136Z,5452.00
2019-06-15T06:56:25.311Z,5496.00
2019-06-15T06:57:25.483Z,5516.00
2019-06-15T06:58:25.657Z,5500.00
2019-06-15T06:59:25.829Z,5548.00
2019-06-15T07:00:26.001Z,5560.00
2019-06-15T07:01:26.177Z,5556.00
2019-06-15T07:02:26.350Z,5568.00
2019-06-15T07:03:26.525Z,5556.00
2019-06-15T07:04:26.700Z,5608.00
2019-06-15T07:05:26.881Z,5580.00
2019-06-15T07:06:27.053Z,5624.00
2019-06-15T07:07:27.231Z,5688.00
2019-06-15T07:08:27.396Z,5660.00
2019-06-15T07:09:27.579Z,5692.00
2019-06-15T07:10:27.754Z,5700.00
2019-06-15T07:11:27.923Z,5728.00
2019-06-15T07:12:28.091Z,5684.00
2019-06-15T07:13:28.265Z,5736.00
2019-06-15T07:14:28.454Z,5800.00
2019-06-15T07:15:28.621Z,5812.00
2019-06-15T07:16:28.798Z,5796.00
2019-06-15T07:17:28.973Z,5820.00
2019-06-15T07:18:29.150Z,5816.00
2019-06-15T07:19:29.322Z,5812.00
2019-06-15T07:20:29.497Z,5892.00
2019-06-15T07:21:29.670Z,5876.00
2019-06-15T07:22:29.847Z,5912.00
2019-06-15T07:23:31.969Z,5688.00
2019-06-15T07:24:30.201Z,5740.00
2019-06-15T07:25:30.372Z,5716.00
2019-06-15T07:26:30.547Z,5408.00
2019-06-15T07:27:30.722Z,5240.00
2019-06-15T07:28:30.915Z,5532.00
2019-06-15T07:29:31.072Z,6120.00
2019-06-15T07:30:31.288Z,6080.00
2019-06-15T07:31:31.420Z,6132.00
2019-06-15T07:32:31.594Z,6096.00
2019-06-15T07:33:31.772Z,6104.00
2019-06-15T07:34:31.952Z,6136.00
2019-06-15T07:35:32.113Z,6168.00
2019-06-15T07:36:32.302Z,6216.00
2019-06-15T07:37:32.476Z,6216.00
2019-06-15T07:38:32.658Z,6212.00
2019-06-15T07:39:32.830Z,6160.00
2019-06-15T07:40:33.005Z,5964.00
2019-06-15T07:41:33.182Z,6316.00
2019-06-15T07:42:33.359Z,6256.00
2019-06-15T07:43:33.532Z,6064.00
2019-06-15T07:44:33.715Z,6276.00
2019-06-15T07:45:33.890Z,6304.00
2019-06-15T07:46:34.083Z,6304.00
2019-06-15T07:47:34.238Z,6308.00
2019-06-15T07:48:34.415Z,6304.00
2019-06-15T07:49:34.590Z,6332.00
2019-06-15T07:50:34.767Z,6364.00
2019-06-15T07:51:34.940Z,6400.00
2019-06-15T07:52:35.117Z,6484.00
2019-06-15T07:53:35.301Z,6532.00
2019-06-15T07:54:36.296Z,6660.00
2019-06-15T07:55:35.644Z,6668.00
2019-06-15T07:56:35.828Z,6508.00
2019-06-15T07:57:35.986Z,6464.00
2019-06-15T07:58:36.164Z,6388.00
2019-06-15T07:59:36.339Z,6372.00
2019-06-15T08:00:36.515Z,6384.00
2019-06-15T08:01:36.691Z,6420.00
2019-06-15T08:02:36.870Z,6372.00
2019-06-15T08:03:37.044Z,6412.00
2019-06-15T08:04:37.219Z,6552.00
2019-06-15T08:05:37.389Z,6524.00
2019-06-15T08:06:37.574Z,6592.00
2019-06-15T08:07:37.748Z,6556.00
2019-06-15T08:08:37.933Z,6624.00
2019-06-15T08:09:38.103Z,6684.00
2019-06-15T08:10:38.280Z,6656.00
2019-06-15T08:11:38.452Z,6688.00
2019-06-15T08:12:38.630Z,6640.00
2019-06-15T08:13:38.807Z,6692.00
2019-06-15T08:14:38.997Z,6728.00
2019-06-15T08:15:39.149Z,6816.00
2019-06-15T08:16:39.327Z,7064.00
2019-06-15T08:17:39.504Z,7468.00
2019-06-15T08:18:39.679Z,7348.00
2019-06-15T08:19:39.856Z,7512.00
2019-06-15T08:20:40.039Z,7504.00
2019-06-15T08:21:40.204Z,7536.00
2019-06-15T08:22:40.375Z,7556.00
2019-06-15T08:23:40.532Z,7636.00
2019-06-15T08:24:40.749Z,7784.00
2019-06-15T08:25:40.880Z,7932.00
2019-06-15T08:26:41.053Z,7812.00
2019-06-15T08:27:41.226Z,7552.00
2019-06-15T08:28:41.394Z,6016.00
2019-06-15T08:29:41.569Z,7096.00
2019-06-15T08:30:41.775Z,7144.00
2019-06-15T08:31:41.914Z,7180.00
2019-06-15T08:32:42.092Z,7068.00
2019-06-15T08:33:42.345Z,7016.00
2019-06-15T08:34:42.422Z,7132.00
2019-06-15T08:35:42.580Z,7304.00
2019-06-15T08:36:42.761Z,6952.00
2019-06-15T08:37:42.921Z,6932.00
2019-06-15T08:38:43.093Z,6904.00
2019-06-15T08:39:43.274Z,6940.00
2019-06-15T08:40:43.432Z,6960.00
2019-06-15T08:41:43.604Z,7004.00
2019-06-15T08:42:43.873Z,6984.00
2019-06-15T08:43:44.009Z,6988.00
2019-06-15T08:44:44.181Z,7040.00
2019-06-15T08:45:44.356Z,7212.00
2019-06-15T08:46:44.532Z,7780.00
2019-06-15T08:47:44.705Z,8492.00
2019-06-15T08:48:44.881Z,8428.00
2019-06-15T08:49:45.057Z,8328.00
2019-06-15T08:50:45.258Z,8532.00
2019-06-15T08:51:45.415Z,9132.00
2019-06-15T08:52:45.581Z,9116.00
2019-06-15T08:53:45.769Z,8816.00
2019-06-15T08:54:45.933Z,8508.00
2019-06-15T08:55:46.112Z,9108.00
2019-06-15T08:56:46.285Z,10132.00
2019-06-15T08:57:46.459Z,10648.00
2019-06-15T08:58:55.007Z,11560.00
2019-06-15T08:59:46.810Z,11792.00
2019-06-15T09:00:46.986Z,9404.00
2019-06-15T09:01:47.164Z,10884.00
2019-06-15T09:02:47.336Z,10852.00
2019-06-15T09:03:49.438Z,8088.00
2019-06-15T09:04:47.741Z,9976.00
2019-06-15T09:05:47.866Z,9780.00
2019-06-15T09:06:48.075Z,9544.00
2019-06-15T09:07:48.217Z,9400.00
2019-06-15T09:08:48.403Z,8776.00
2019-06-15T09:09:48.566Z,8624.00
2019-06-15T09:10:48.747Z,8568.00
2019-06-15T09:11:48.919Z,8912.00
2019-06-15T09:12:49.107Z,8984.00
2019-06-15T09:13:49.272Z,8992.00
2019-06-15T09:14:49.451Z,9516.00
2019-06-15T09:15:49.621Z,9312.00
2019-06-15T09:16:49.797Z,9816.00
2019-06-15T09:17:49.971Z,10888.00
2019-06-15T09:18:50.146Z,11772.00
2019-06-15T09:19:50.325Z,10832.00
2019-06-15T09:20:50.620Z,11860.00
2019-06-15T09:21:50.672Z,12656.00
2019-06-15T09:22:50.849Z,14240.00
2019-06-15T09:23:51.026Z,14252.00
2019-06-15T09:24:51.203Z,15060.00
2019-06-15T09:25:51.378Z,13976.00
2019-06-15T09:26:51.552Z,12736.00
2019-06-15T09:27:51.722Z,16096.00
2019-06-15T09:28:51.898Z,15584.00
2019-06-15T09:29:52.074Z,17312.00
2019-06-15T09:30:52.249Z,14336.00
2019-06-15T09:31:52.434Z,11496.00
2019-06-15T09:32:52.606Z,12028.00
2019-06-15T09:33:52.781Z,9936.00
2019-06-15T09:34:52.954Z,8096.00
2019-06-15T09:35:53.127Z,8376.00
2019-06-15T09:36:53.304Z,8064.00
2019-06-15T09:37:53.480Z,6284.00
2019-06-15T09:38:53.655Z,5556.00
2019-06-15T09:39:53.833Z,5592.00
2019-06-15T09:40:54.010Z,5600.00
2019-06-15T09:41:54.179Z,5960.00
2019-06-15T09:42:54.356Z,6556.00
2019-06-15T09:43:54.532Z,7392.00
2019-06-15T09:44:54.710Z,8480.00
2019-06-15T09:45:54.892Z,10604.00
2019-06-15T09:46:55.064Z,13644.00
2019-06-15T09:47:55.240Z,16064.00
2019-06-15T09:48:55.418Z,15332.00
2019-06-15T09:49:55.608Z,14328.00
2019-06-15T09:50:55.774Z,13860.00
2019-06-15T09:51:55.951Z,13268.00
2019-06-15T09:52:56.124Z,11836.00
2019-06-15T09:53:56.299Z,11228.00
2019-06-15T09:54:56.478Z,11032.00
2019-06-15T09:55:56.660Z,10144.00
2019-06-15T09:56:56.837Z,8288.00
2019-06-15T09:57:57.010Z,7860.00
2019-06-15T09:58:57.187Z,9308.00
2019-06-15T09:59:57.370Z,12372.00
2019-06-15T10:00:57.545Z,14988.00
2019-06-15T10:01:57.720Z,13480.00
2019-06-15T10:02:57.901Z,12480.00
2019-06-15T10:03:58.077Z,8572.00
2019-06-15T10:04:58.255Z,5896.00
2019-06-15T10:05:58.427Z,4664.00
2019-06-15T10:06:58.602Z,4944.00
2019-06-15T10:07:58.779Z,6280.00
2019-06-15T10:08:58.954Z,7868.00
2019-06-15T10:09:59.131Z,7516.00
2019-06-15T10:10:59.309Z,5528.00
2019-06-15T10:11:59.483Z,5576.00
2019-06-15T10:12:59.661Z,6660.00
2019-06-15T10:13:59.838Z,8608.00
2019-06-15T10:15:00.026Z,9380.00
2019-06-15T10:16:00.183Z,9416.00
2019-06-15T10:17:00.487Z,10264.00
2019-06-15T10:18:00.557Z,11672.00
2019-06-15T10:19:00.736Z,12400.00
2019-06-15T10:20:00.911Z,13060.00
2019-06-15T10:21:01.087Z,14588.00
2019-06-15T10:22:01.274Z,13776.00
2019-06-15T10:23:01.440Z,14636.00
2019-06-15T10:24:01.607Z,16192.00
2019-06-15T10:25:01.998Z,16832.00
2019-06-15T10:26:01.954Z,14456.00
2019-06-15T10:27:02.129Z,16528.00
2019-06-15T10:28:02.297Z,43552.00
2019-06-15T10:29:02.475Z,15740.00
2019-06-15T10:30:02.651Z,36896.00
2019-06-15T10:31:02.830Z,43552.00
2019-06-15T10:32:03.007Z,18912.00
2019-06-15T10:33:03.183Z,16492.00
2019-06-15T10:34:03.398Z,41824.00
2019-06-15T10:35:03.538Z,43200.00
2019-06-15T10:36:03.720Z,43616.00
2019-06-15T10:37:03.892Z,46560.00
2019-06-15T10:38:04.063Z,13332.00
2019-06-15T10:39:04.246Z,47904.00
2019-06-15T10:40:04.414Z,47104.00
2019-06-15T10:41:04.586Z,50208.00
2019-06-15T10:42:04.762Z,54208.00
2019-06-15T10:43:04.938Z,51296.00
2019-06-15T10:44:05.118Z,49536.00
2019-06-15T10:45:05.301Z,49632.00
2019-06-15T10:46:05.469Z,42848.00
2019-06-15T10:47:05.647Z,10080.00
2019-06-15T10:48:05.831Z,19584.00
2019-06-15T10:49:06.003Z,46432.00
2019-06-15T10:50:06.177Z,47136.00
2019-06-15T10:51:06.354Z,48448.00
2019-06-15T10:52:06.532Z,50496.00
2019-06-15T10:53:06.712Z,51328.00
2019-06-15T10:54:06.897Z,51296.00
2019-06-15T10:55:07.064Z,51712.00
2019-06-15T10:56:07.241Z,39264.00
2019-06-15T10:57:07.421Z,50176.00
2019-06-15T10:58:07.601Z,48352.00
2019-06-15T10:59:07.823Z,48000.00
2019-06-15T11:00:07.955Z,49248.00
2019-06-15T11:01:08.132Z,53760.00
2019-06-15T11:02:08.316Z,55360.00
2019-06-15T11:03:08.493Z,57056.00
2019-06-15T11:04:08.672Z,58048.00
2019-06-15T11:05:08.895Z,22240.00
2019-06-15T11:06:09.031Z,57888.00
2019-06-15T11:07:09.208Z,60064.00
2019-06-15T11:08:09.389Z,61696.00
2019-06-15T11:09:09.593Z,15716.00
2019-06-15T11:10:09.757Z,54336.00
2019-06-15T11:11:09.926Z,9592.00
2019-06-15T11:12:10.103Z,52736.00
2019-06-15T11:13:10.286Z,23520.00
2019-06-15T11:14:10.471Z,44864.00
2019-06-15T11:15:10.648Z,54528.00
2019-06-15T11:16:10.884Z,59104.00
2019-06-15T11:17:11.010Z,58688.00
2019-06-15T11:18:11.190Z,59232.00
2019-06-15T11:19:11.371Z,59328.00
2019-06-15T11:20:11.553Z,59072.00
2019-06-15T11:21:11.731Z,61792.00
2019-06-15T11:22:11.919Z,64992.00
2019-06-15T11:23:12.091Z,56512.00
2019-06-15T11:24:12.278Z,69152.00
2019-06-15T11:25:12.453Z,65600.00
2019-06-15T11:26:12.629Z,66176.00
2019-06-15T11:27:12.828Z,62368.00
2019-06-15T11:28:12.996Z,54784.00
2019-06-15T11:29:13.178Z,27424.00
2019-06-15T11:30:14.615Z,63392.00
2019-06-15T11:31:13.552Z,63584.00
2019-06-15T11:32:13.778Z,65344.00
2019-06-15T11:33:13.922Z,62496.00
2019-06-15T11:34:14.093Z,61984.00
2019-06-15T11:35:14.275Z,46624.00
2019-06-15T11:36:14.457Z,22528.00
2019-06-15T11:37:14.686Z,63552.00
2019-06-15T11:38:14.817Z,64640.00
2019-06-15T11:39:15.000Z,63328.00
2019-06-15T11:40:15.193Z,66368.00
2019-06-15T11:41:15.358Z,63936.00
2019-06-15T11:42:15.536Z,14576.00
2019-06-15T11:43:15.724Z,65568.00
2019-06-15T11:44:15.903Z,61152.00
2019-06-15T11:45:16.081Z,56992.00
2019-06-15T11:46:16.260Z,57440.00
2019-06-15T11:47:16.437Z,49920.00
2019-06-15T11:48:16.630Z,58496.00
2019-06-15T11:49:16.809Z,62496.00
2019-06-15T11:50:16.985Z,61824.00
2019-06-15T11:51:17.167Z,58176.00
2019-06-15T11:52:17.346Z,62944.00
2019-06-15T11:53:17.525Z,61248.00
2019-06-15T11:54:17.705Z,71744.00
2019-06-15T11:55:19.935Z,59904.00
2019-06-15T11:56:18.071Z,58944.00
2019-06-15T11:57:18.258Z,64448.00
2019-06-15T11:58:18.431Z,49568.00
2019-06-15T11:59:18.613Z,51584.00
2019-06-15T12:00:30.753Z,30752.00
2019-06-15T12:01:19.111Z,62752.00
2019-06-15T12:02:19.168Z,22464.00
2019-06-15T12:03:19.343Z,51968.00
2019-06-15T12:04:19.527Z,48256.00
2019-06-15T12:05:19.710Z,61056.00
2019-06-15T12:06:19.894Z,55360.00
2019-06-15T12:07:20.073Z,63136.00
2019-06-15T12:08:20.255Z,62656.00
2019-06-15T12:09:20.438Z,53376.00
2019-06-15T12:10:20.615Z,49824.00
2019-06-15T12:11:20.797Z,57856.00
2019-06-15T12:12:20.983Z,60608.00
2019-06-15T12:13:21.167Z,63680.00
2019-06-15T12:14:21.349Z,56224.00
2019-06-15T12:15:21.537Z,57472.00
2019-06-15T12:16:21.715Z,55072.00
2019-06-15T12:17:21.897Z,60576.00
2019-06-15T12:18:22.077Z,57792.00
2019-06-15T12:19:22.256Z,54176.00
2019-06-15T12:20:22.438Z,54304.00
2019-06-15T12:21:22.625Z,60576.00
2019-06-15T12:22:22.802Z,63392.00
2019-06-15T12:23:22.987Z,60256.00
2019-06-15T12:24:23.166Z,53536.00
2019-06-15T12:25:23.350Z,59072.00
2019-06-15T12:26:23.532Z,62048.00
2019-06-15T12:27:23.713Z,67552.00
2019-06-15T12:28:23.896Z,65568.00
2019-06-15T12:29:24.077Z,62752.00
2019-06-15T12:30:24.257Z,67104.00
2019-06-15T12:31:24.439Z,63328.00
2019-06-15T12:32:24.621Z,58528.00
2019-06-15T12:33:24.805Z,61472.00
2019-06-15T12:34:24.988Z,63552.00
2019-06-15T12:35:25.171Z,18848.00
2019-06-15T12:36:25.356Z,49408.00
2019-06-15T12:37:25.544Z,73728.00
2019-06-15T12:38:25.713Z,71648.00
2019-06-15T12:39:25.893Z,68512.00
2019-06-15T12:40:26.077Z,68480.00
2019-06-15T12:41:26.255Z,18752.00
2019-06-15T12:42:26.441Z,20352.00
2019-06-15T12:43:26.622Z,16960.00
2019-06-15T12:44:26.806Z,16096.00
2019-06-15T12:45:26.997Z,16672.00
2019-06-15T12:46:27.169Z,70752.00
2019-06-15T12:47:27.361Z,73728.00
2019-06-15T12:48:27.528Z,20928.00
2019-06-15T12:49:27.710Z,22880.00
2019-06-15T12:50:27.892Z,67264.00
2019-06-15T12:51:28.076Z,28768.00
2019-06-15T12:52:28.262Z,27232.00
2019-06-15T12:53:28.439Z,53728.00
2019-06-15T12:54:28.617Z,59776.00
2019-06-15T12:55:28.810Z,79584.00
2019-06-15T12:56:28.997Z,79616.00
2019-06-15T12:57:29.167Z,46432.00
2019-06-15T12:58:29.342Z,68768.00
2019-06-15T12:59:29.522Z,73824.00
2019-06-15T13:00:29.707Z,54880.00
2019-06-15T13:01:29.887Z,26080.00
2019-06-15T13:02:30.074Z,72160.00
2019-06-15T13:03:30.255Z,72864.00
2019-06-15T13:04:30.453Z,33728.00
2019-06-15T13:05:30.614Z,32256.00
2019-06-15T13:06:30.795Z,15436.00
2019-06-15T13:07:30.970Z,16352.00
2019-06-15T13:08:31.151Z,16768.00
2019-06-15T13:09:31.342Z,16832.00
2019-06-15T13:10:31.514Z,17248.00
2019-06-15T13:11:31.691Z,21408.00
2019-06-15T13:12:31.873Z,71712.00
2019-06-15T13:13:32.053Z,72352.00
2019-06-15T13:14:32.234Z,76000.00
2019-06-15T13:15:32.418Z,32256.00
2019-06-15T13:16:39.472Z,22336.00
2019-06-15T13:17:32.776Z,16928.00
2019-06-15T13:18:32.957Z,15112.00
2019-06-15T13:19:33.136Z,14036.00
2019-06-15T13:20:33.319Z,14440.00
2019-06-15T13:21:33.495Z,14244.00
2019-06-15T13:22:33.730Z,14304.00
2019-06-15T13:23:33.863Z,14748.00
2019-06-15T13:24:34.040Z,15584.00
2019-06-15T13:25:34.215Z,17984.00
2019-06-15T13:26:34.395Z,25568.00
2019-06-15T13:27:34.573Z,65056.00
2019-06-15T13:28:34.757Z,21536.00
2019-06-15T13:29:34.934Z,29280.00
2019-06-15T13:30:35.113Z,54304.00
2019-06-15T13:31:35.294Z,33824.00
2019-06-15T13:32:35.472Z,53568.00
2019-06-15T13:33:35.648Z,68896.00
2019-06-15T13:34:35.829Z,62272.00
2019-06-15T13:35:36.004Z,77376.00
2019-06-15T13:36:36.190Z,83936.00
2019-06-15T13:37:42.025Z,78912.00
2019-06-15T13:38:36.545Z,75776.00
2019-06-15T13:39:36.775Z,64672.00
2019-06-15T13:40:36.905Z,73568.00
2019-06-15T13:41:37.082Z,36448.00
2019-06-15T13:42:37.263Z,26400.00
2019-06-15T13:43:37.443Z,18528.00
2019-06-15T13:44:37.626Z,47968.00
2019-06-15T13:45:37.813Z,56736.00
2019-06-15T13:46:37.993Z,64576.00
2019-06-15T13:47:38.167Z,12952.00
2019-06-15T13:48:38.352Z,12336.00
2019-06-15T13:49:38.529Z,13372.00
2019-06-15T13:50:38.714Z,15820.00
2019-06-15T13:51:38.887Z,15924.00
2019-06-15T13:52:39.111Z,11920.00
2019-06-15T13:53:39.260Z,10648.00
2019-06-15T13:54:39.430Z,13048.00
2019-06-15T13:55:39.606Z,41696.00
2019-06-15T13:56:39.802Z,57504.00
2019-06-15T13:57:39.969Z,67936.00
2019-06-15T13:58:40.151Z,72064.00
2019-06-15T13:59:40.332Z,74016.00
2019-06-15T14:00:40.515Z,70560.00
2019-06-15T14:01:40.692Z,62496.00
2019-06-15T14:02:40.897Z,70784.00
2019-06-15T14:03:41.051Z,80640.00
2019-06-15T14:04:41.273Z,79200.00
2019-06-15T14:05:41.404Z,76192.00
2019-06-15T14:06:41.579Z,76928.00
2019-06-15T14:07:41.768Z,78176.00
2019-06-15T14:08:41.945Z,74336.00
2019-06-15T14:09:42.132Z,70208.00
2019-06-15T14:10:42.297Z,69344.00
2019-06-15T14:11:42.478Z,71840.00
2019-06-15T14:12:42.672Z,70080.00
2019-06-15T14:13:42.845Z,67712.00
2019-06-15T14:14:43.037Z,69600.00
2019-06-15T14:15:43.211Z,14160.00
2019-06-15T14:16:43.392Z,74208.00
2019-06-15T14:17:43.571Z,72032.00
2019-06-15T14:18:43.757Z,9176.00
2019-06-15T14:19:43.933Z,68224.00
2019-06-15T14:20:44.113Z,66752.00
2019-06-15T14:21:44.296Z,67936.00
2019-06-15T14:22:44.481Z,69088.00
2019-06-15T14:23:44.670Z,67328.00
2019-06-15T14:24:44.836Z,62912.00
2019-06-15T14:25:45.014Z,14536.00
2019-06-15T14:26:45.194Z,30944.00
2019-06-15T14:27:45.376Z,13032.00
2019-06-15T14:28:45.559Z,9040.00
2019-06-15T14:29:45.744Z,8988.00
2019-06-15T14:30:45.922Z,9608.00
2019-06-15T14:31:50.009Z,10140.00
2019-06-15T14:32:46.284Z,60608.00
2019-06-15T14:33:46.467Z,60608.00
2019-06-15T14:34:46.647Z,63520.00
2019-06-15T14:35:46.857Z,62720.00
2019-06-15T14:36:47.010Z,57440.00
2019-06-15T14:37:47.185Z,55264.00
2019-06-15T14:38:47.371Z,60928.00
2019-06-15T14:39:47.551Z,64768.00
2019-06-15T14:40:47.730Z,62400.00
2019-06-15T14:41:50.977Z,59840.00
2019-06-15T14:42:48.087Z,56032.00
2019-06-15T14:43:48.266Z,58496.00
2019-06-15T14:44:48.469Z,55648.00
2019-06-15T14:45:58.891Z,56448.00
2019-06-15T14:46:48.809Z,55104.00
2019-06-15T14:47:48.990Z,51488.00
2019-06-15T14:48:49.185Z,50656.00
2019-06-15T14:49:49.348Z,57952.00
2019-06-15T14:50:49.532Z,56416.00
2019-06-15T14:51:51.096Z,53984.00
2019-06-15T14:52:49.903Z,56128.00
2019-06-15T14:53:55.514Z,55840.00
2019-06-15T14:54:50.261Z,54336.00
2019-06-15T14:55:50.447Z,54848.00
2019-06-15T14:56:50.626Z,55616.00
2019-06-15T14:57:50.806Z,56160.00
2019-06-15T14:58:50.987Z,56064.00
2019-06-15T14:59:59.858Z,54592.00
2019-06-15T15:00:51.339Z,53696.00
2019-06-15T15:02:06.346Z,54432.00
2019-06-15T15:02:51.712Z,53440.00
2019-06-15T15:03:51.892Z,50080.00
2019-06-15T15:04:52.078Z,51744.00
2019-06-15T15:05:52.260Z,53216.00
2019-06-15T15:06:52.440Z,51776.00
2019-06-15T15:07:52.624Z,51968.00
2019-06-15T15:08:52.809Z,53536.00
2019-06-15T15:09:52.985Z,53152.00
2019-06-15T15:10:53.174Z,52096.00
2019-06-15T15:11:53.456Z,53152.00
2019-06-15T15:12:53.539Z,52672.00
2019-06-15T15:13:56.087Z,50976.00
2019-06-15T15:14:56.272Z,49952.00
2019-06-15T15:15:54.085Z,50560.00
2019-06-15T15:16:56.850Z,50752.00
2019-06-15T15:17:54.444Z,49952.00
2019-06-15T15:18:56.698Z,51104.00
2019-06-15T15:19:57.114Z,51584.00
2019-06-15T15:20:56.468Z,44800.00
2019-06-15T15:21:55.166Z,41088.00
2019-06-15T15:22:56.846Z,48032.00
2019-06-15T15:23:57.109Z,49920.00
2019-06-15T15:24:56.128Z,41600.00
2019-06-15T15:25:57.598Z,41568.00
2019-06-15T15:26:56.067Z,48384.00
2019-06-15T15:27:57.178Z,45952.00
2019-06-15T15:28:56.683Z,35936.00
2019-06-15T15:29:57.161Z,39776.00
2019-06-15T15:30:56.765Z,8040.00
2019-06-15T15:31:57.749Z,34560.00
2019-06-15T15:32:57.305Z,36800.00
2019-06-15T15:33:57.313Z,35360.00
2019-06-15T15:34:57.495Z,37024.00
2019-06-15T15:35:57.681Z,30208.00
2019-06-15T15:36:57.858Z,41344.00
2019-06-15T15:37:58.043Z,40000.00
2019-06-15T15:38:58.225Z,42432.00
2019-06-15T15:39:58.406Z,42560.00
2019-06-15T15:40:58.587Z,13792.00
2019-06-15T15:41:58.768Z,10376.00
2019-06-15T15:42:58.952Z,15744.00
2019-06-15T15:43:59.133Z,40608.00
2019-06-15T15:44:59.337Z,42912.00
2019-06-15T15:45:59.500Z,42304.00
2019-06-15T15:46:59.685Z,36000.00
2019-06-15T15:47:59.870Z,37376.00
2019-06-15T15:49:00.050Z,38080.00
2019-06-15T15:50:00.234Z,36352.00
2019-06-15T15:51:00.410Z,32256.00
2019-06-15T15:52:00.591Z,33312.00
2019-06-15T15:53:00.775Z,29024.00
2019-06-15T15:54:00.961Z,16736.00
2019-06-15T15:55:01.144Z,22944.00
2019-06-15T15:56:01.313Z,26144.00
2019-06-15T15:57:01.529Z,26528.00